Time;durP1;ratioP1;P1;durP2;ratioP2;P2;SDS_P1;SDS_P2;PMS_P1;PMS_P2;Temp;Humidity;BMP_temperature;BMP_pressure;BME280_temperature;BME280_humidity;BME280_pressure;Samples;Min_cycle;Max_cycle;Signal;HPM_P1;HPM_P2
2021/04/05 00:01:33;;;;;;;35.28;14.00;;;;;;;4.62;100.00;101025.81;3620075;39;20077;-64
2021/04/05 00:04:00;;;;;;;37.83;15.43;;;;;;;4.65;100.00;101010.53;3620207;39;20350;-62
2021/04/05 00:06:26;;;;;;;33.25;13.82;;;;;;;4.65;100.00;101014.97;3620762;39;20059;-62
2021/04/05 00:08:52;;;;;;;31.58;13.48;;;;;;;4.60;100.00;101014.41;3619416;39;20446;-63
2021/04/05 00:11:18;;;;;;;32.63;13.93;;;;;;;4.57;100.00;101008.31;3620150;39;20035;-62
2021/04/05 00:13:45;;;;;;;35.97;14.75;;;;;;;4.57;100.00;101002.97;3620851;39;20051;-62
2021/04/05 00:16:42;;;;;;;31.17;14.73;;;;;;;4.60;100.00;100998.41;3646509;22;20366;-63
2021/04/05 00:19:09;;;;;;;35.70;14.63;;;;;;;4.62;100.00;100996.50;3586085;40;20052;-62
2021/04/05 00:21:34;;;;;;;30.23;14.57;;;;;;;4.59;100.00;100999.34;3590687;40;20067;-62
2021/04/05 00:24:00;;;;;;;30.75;14.65;;;;;;;4.63;100.00;100987.56;3591146;40;20049;-63
2021/04/05 00:26:26;;;;;;;31.73;15.93;;;;;;;4.64;100.00;100982.13;3590522;40;20052;-62
2021/04/05 00:28:52;;;;;;;34.88;15.38;;;;;;;4.66;100.00;100993.56;3591803;39;20036;-63
2021/04/05 00:31:18;;;;;;;36.05;15.48;;;;;;;4.69;100.00;100989.84;3592243;40;20054;-61
2021/04/05 00:33:45;;;;;;;34.58;15.80;;;;;;;4.73;100.00;100996.72;3592419;40;20505;-62
2021/04/05 00:36:12;;;;;;;35.03;14.55;;;;;;;4.78;100.00;100994.59;3591756;40;20052;-62
2021/04/05 00:38:38;;;;;;;35.33;16.50;;;;;;;4.79;100.00;100998.16;3590722;40;20044;-63
2021/04/05 00:41:06;;;;;;;32.75;14.13;;;;;;;4.80;100.00;100989.16;3590133;40;20116;-62
2021/04/05 00:43:34;;;;;;;36.65;16.02;;;;;;;4.81;100.00;100972.22;3592875;40;20329;-63
2021/04/05 00:46:00;;;;;;;37.65;15.23;;;;;;;4.84;100.00;100961.38;3591289;40;20056;-62
2021/04/05 00:48:27;;;;;;;40.30;15.60;;;;;;;4.85;100.00;100950.59;3592830;40;21066;-63
2021/04/05 00:50:55;;;;;;;40.20;16.45;;;;;;;4.94;100.00;100951.81;3588666;40;20052;-62
2021/04/05 00:53:26;;;;;;;36.08;15.50;;;;;;;4.97;100.00;100937.44;3590717;40;20057;-62
2021/04/05 00:55:52;;;;;;;42.80;16.55;;;;;;;5.02;100.00;100932.66;3587095;40;20667;-64
2021/04/05 00:58:19;;;;;;;38.92;15.40;;;;;;;5.05;100.00;100927.13;3591426;40;20158;-63
2021/04/05 01:00:47;;;;;;;41.63;16.52;;;;;;;5.11;100.00;100929.41;3591029;39;20128;-62
2021/04/05 01:03:15;;;;;;;37.85;18.33;;;;;;;5.15;100.00;100925.56;3591259;40;20088;-63
2021/04/05 01:05:42;;;;;;;38.83;15.52;;;;;;;5.17;100.00;100910.34;3590452;40;20442;-63
2021/04/05 01:08:09;;;;;;;42.85;15.88;;;;;;;5.19;100.00;100908.41;3591922;40;20041;-63
2021/04/05 01:10:36;;;;;;;40.08;18.77;;;;;;;5.20;100.00;100890.59;3591763;40;20076;-62
2021/04/05 01:13:03;;;;;;;44.42;18.13;;;;;;;5.19;100.00;100892.41;3590404;40;20063;-62
2021/04/05 01:15:29;;;;;;;42.50;16.98;;;;;;;5.19;100.00;100891.56;3591167;40;20062;-63
2021/04/05 01:17:55;;;;;;;43.40;16.40;;;;;;;5.31;100.00;100888.06;3592719;40;20045;-64
2021/04/05 01:20:21;;;;;;;39.83;16.17;;;;;;;5.34;100.00;100882.53;3589924;40;20149;-62
2021/04/05 01:22:52;;;;;;;37.30;16.30;;;;;;;5.38;100.00;100875.19;3591405;40;20070;-62
2021/04/05 01:25:20;;;;;;;40.08;16.45;;;;;;;5.43;100.00;100865.03;3591052;40;20060;-62
2021/04/05 01:27:46;;;;;;;39.00;16.25;;;;;;;5.47;100.00;100836.34;3592699;40;20060;-63
2021/04/05 01:30:27;;;;;;;45.63;16.48;;;;;;;5.51;100.00;100832.53;3590706;40;20056;-61
2021/04/05 01:33:00;;;;;;;34.35;13.98;;;;;;;5.56;100.00;100841.06;3591400;40;20141;-63
2021/04/05 01:35:27;;;;;;;39.83;14.90;;;;;;;5.58;100.00;100834.66;3589034;40;20072;-63
2021/04/05 01:37:54;;;;;;;38.90;16.65;;;;;;;5.65;100.00;100834.22;3587661;39;20044;-64
2021/04/05 01:40:20;;;;;;;36.85;15.50;;;;;;;5.69;100.00;100830.41;3590876;39;20056;-63
2021/04/05 01:42:46;;;;;;;45.60;15.25;;;;;;;5.76;100.00;100823.69;3591673;40;20064;-62
2021/04/05 01:45:17;;;;;;;36.90;15.38;;;;;;;5.84;100.00;100825.81;3587158;40;20305;-63
2021/04/05 01:47:43;;;;;;;39.80;13.50;;;;;;;6.02;100.00;100837.06;3591575;40;20390;-63
2021/04/05 01:50:10;;;;;;;36.65;13.13;;;;;;;6.22;100.00;100817.81;3586971;40;20036;-62
2021/04/05 01:52:39;;;;;;;32.38;11.50;;;;;;;6.27;100.00;100813.00;3589746;40;20334;-62
2021/04/05 01:55:08;;;;;;;40.10;11.70;;;;;;;6.31;100.00;100821.63;3588290;40;20086;-63
2021/04/05 01:57:34;;;;;;;33.57;11.33;;;;;;;6.51;100.00;100806.84;3591602;40;20052;-62
2021/04/05 02:00:00;;;;;;;20.60;9.95;;;;;;;6.63;100.00;100800.59;3591418;40;20056;-62
2021/04/05 02:02:27;;;;;;;26.15;10.18;;;;;;;6.74;100.00;100802.47;3586698;40;20051;-63
2021/04/05 02:04:54;;;;;;;23.05;9.50;;;;;;;6.81;100.00;100786.84;3591131;40;20054;-63
2021/04/05 02:07:21;;;;;;;28.08;10.65;;;;;;;6.78;100.00;100784.41;3591845;40;20091;-64
2021/04/05 02:09:47;;;;;;;29.95;11.32;;;;;;;6.79;100.00;100784.28;3591260;40;20056;-63
2021/04/05 02:12:15;;;;;;;29.63;11.63;;;;;;;6.82;100.00;100777.84;3589956;40;20353;-62
2021/04/05 02:14:41;;;;;;;30.13;10.45;;;;;;;6.89;100.00;100768.41;3591712;40;20076;-63
2021/04/05 02:17:07;;;;;;;27.35;9.82;;;;;;;6.89;100.00;100760.38;3591244;40;20048;-63
2021/04/05 02:19:33;;;;;;;28.02;11.50;;;;;;;6.89;100.00;100757.72;3591072;40;20046;-63
2021/04/05 02:22:00;;;;;;;26.27;9.68;;;;;;;6.88;100.00;100750.63;3590600;40;20051;-62
2021/04/05 02:24:27;;;;;;;24.85;10.45;;;;;;;6.93;100.00;100743.09;3590960;40;20049;-62
2021/04/05 02:26:54;;;;;;;21.20;10.20;;;;;;;6.97;100.00;100741.91;3591194;40;20054;-63
2021/04/05 02:29:22;;;;;;;20.27;10.43;;;;;;;6.97;100.00;100733.03;3585796;40;20083;-63
2021/04/05 02:31:48;;;;;;;23.48;9.90;;;;;;;6.94;100.00;100723.41;3589441;40;20407;-63
2021/04/05 02:34:15;;;;;;;26.38;10.43;;;;;;;6.94;100.00;100725.25;3655854;22;20402;-62
2021/04/05 02:36:41;;;;;;;23.52;10.05;;;;;;;6.91;100.00;100718.31;3602882;39;20036;-63
2021/04/05 02:39:10;;;;;;;26.88;10.05;;;;;;;6.94;100.00;100728.78;3609748;39;20116;-64
2021/04/05 02:41:40;;;;;;;25.70;9.10;;;;;;;6.98;100.00;100714.19;3605031;39;20035;-63
2021/04/05 02:44:07;;;;;;;26.90;10.05;;;;;;;6.96;100.00;100708.13;3609977;39;20325;-63
2021/04/05 02:46:36;;;;;;;26.95;9.32;;;;;;;6.98;100.00;100700.81;3610322;39;20044;-62
2021/04/05 02:49:05;;;;;;;24.45;9.20;;;;;;;7.01;100.00;100697.91;3609463;39;20138;-63
2021/04/05 02:51:32;;;;;;;28.67;9.77;;;;;;;7.01;100.00;100684.53;3607751;39;20100;-62
2021/04/05 02:53:59;;;;;;;18.88;8.98;;;;;;;7.00;100.00;100676.63;3609929;39;20063;-63
2021/04/05 02:56:26;;;;;;;25.40;9.60;;;;;;;7.03;100.00;100662.16;3610185;39;20148;-65
2021/04/05 02:58:54;;;;;;;27.48;8.90;;;;;;;7.04;100.00;100664.72;3611044;39;20042;-63
2021/04/05 03:01:22;;;;;;;17.98;8.65;;;;;;;7.03;100.00;100648.78;3608188;39;20039;-62
2021/04/05 03:03:49;;;;;;;20.30;9.30;;;;;;;7.05;100.00;100652.19;3610221;39;20047;-63
2021/04/05 03:06:18;;;;;;;22.83;8.82;;;;;;;7.06;100.00;100644.03;3610084;39;20059;-63
2021/04/05 03:08:45;;;;;;;21.27;8.95;;;;;;;7.06;100.00;100640.50;3610115;39;20350;-63
2021/04/05 03:11:12;;;;;;;23.52;9.88;;;;;;;7.10;100.00;100637.47;3608932;39;20038;-63
2021/04/05 03:13:40;;;;;;;20.35;9.38;;;;;;;7.12;100.00;100624.81;3610389;39;20317;-63
2021/04/05 03:16:11;;;;;;;18.40;8.30;;;;;;;7.12;100.00;100632.00;3609815;39;20032;-63
2021/04/05 03:18:38;;;;;;;25.35;9.60;;;;;;;7.17;100.00;100624.47;3611019;39;20650;-62
2021/04/05 03:21:07;;;;;;;25.45;8.65;;;;;;;7.18;100.00;100618.13;3608673;39;20055;-63
2021/04/05 03:23:34;;;;;;;25.27;8.80;;;;;;;7.20;100.00;100616.19;3609575;39;20068;-62
2021/04/05 03:26:00;;;;;;;20.30;9.00;;;;;;;7.23;100.00;100610.59;3609827;39;20043;-62
2021/04/05 03:28:27;;;;;;;24.65;9.13;;;;;;;7.24;100.00;100612.28;3610160;39;20040;-63
2021/04/05 03:30:55;;;;;;;26.83;9.10;;;;;;;7.22;100.00;100606.22;3609261;39;20051;-63
2021/04/05 03:33:26;;;;;;;19.67;9.25;;;;;;;7.24;100.00;100601.59;3610456;39;20123;-62
2021/04/05 03:35:56;;;;;;;20.85;7.90;;;;;;;7.24;100.00;100590.88;3663992;22;20067;-62
2021/04/05 03:38:23;;;;;;;15.60;7.80;;;;;;;7.28;100.00;100597.69;3601239;39;20274;-64
2021/04/05 03:40:49;;;;;;;18.52;8.82;;;;;;;7.28;100.00;100597.69;3598346;39;20123;-61
2021/04/05 03:43:23;;;;;;;20.65;7.97;;;;;;;7.33;100.00;100592.84;3599771;39;20036;-64
2021/04/05 03:45:54;;;;;;;23.13;8.88;;;;;;;7.30;100.00;100569.00;3600770;39;20136;-62
2021/04/05 03:48:27;;;;;;;17.88;8.20;;;;;;;7.32;100.00;100584.94;3600387;39;20052;-64
2021/04/05 03:51:02;;;;;;;20.27;8.48;;;;;;;7.35;100.00;100579.34;3599992;39;20331;-62
2021/04/05 03:53:37;;;;;;;19.15;8.63;;;;;;;7.40;100.00;100581.63;3600529;39;20048;-64
2021/04/05 03:56:12;;;;;;;19.77;7.80;;;;;;;7.40;100.00;100578.97;3600894;39;20064;-63
2021/04/05 03:58:42;;;;;;;21.95;8.75;;;;;;;7.37;100.00;100583.56;3600243;39;20141;-63
2021/04/05 04:01:12;;;;;;;23.23;8.82;;;;;;;7.33;100.00;100574.09;3600241;39;20044;-62
2021/04/05 04:03:48;;;;;;;20.00;8.07;;;;;;;7.34;100.00;100566.91;3600400;39;20313;-63
2021/04/05 04:06:19;;;;;;;19.95;8.40;;;;;;;7.32;100.00;100563.53;3602629;39;20411;-62
2021/04/05 04:08:48;;;;;;;17.63;7.47;;;;;;;7.27;100.00;100549.63;3600982;39;20346;-62
2021/04/05 04:11:22;;;;;;;21.73;8.40;;;;;;;7.25;100.00;100552.44;3600993;39;20052;-62
2021/04/05 04:13:48;;;;;;;19.55;8.35;;;;;;;7.22;100.00;100555.34;3599297;39;20315;-64
2021/04/05 04:16:14;;;;;;;24.63;8.32;;;;;;;7.20;100.00;100543.94;3599902;39;20048;-63
2021/04/05 04:18:41;;;;;;;21.13;8.40;;;;;;;7.20;100.00;100541.25;3601415;39;20056;-63
2021/04/05 04:21:08;;;;;;;24.70;8.40;;;;;;;7.22;100.00;100539.28;3600777;39;20050;-63
2021/04/05 04:23:35;;;;;;;17.05;7.30;;;;;;;7.21;100.00;100521.53;3601258;39;20375;-63
2021/04/05 04:26:03;;;;;;;19.38;8.38;;;;;;;7.23;100.00;100516.03;3602675;39;20034;-63
2021/04/05 04:28:29;;;;;;;20.27;7.55;;;;;;;7.26;100.00;100508.63;3662726;22;20087;-63
2021/04/05 04:30:56;;;;;;;20.40;6.93;;;;;;;7.27;100.00;100510.31;3589650;40;20051;-64
2021/04/05 04:33:26;;;;;;;20.52;8.25;;;;;;;7.27;100.00;100502.28;3591189;40;20071;-64
2021/04/05 04:35:52;;;;;;;18.25;7.32;;;;;;;7.32;100.00;100500.09;3591549;40;20053;-62
2021/04/05 04:38:20;;;;;;;17.83;7.35;;;;;;;7.36;100.00;100496.22;3591340;40;20060;-62
2021/04/05 04:40:46;;;;;;;22.27;8.05;;;;;;;7.35;100.00;100480.28;3591546;40;20052;-63
2021/04/05 04:43:13;;;;;;;21.30;7.38;;;;;;;7.35;100.00;100475.75;3592134;40;20129;-63
2021/04/05 04:45:40;;;;;;;20.10;7.32;;;;;;;7.34;100.00;100473.22;3591942;40;20144;-62
2021/04/05 04:48:07;;;;;;;15.75;7.65;;;;;;;7.40;100.00;100477.22;3591321;40;20052;-62
2021/04/05 04:50:34;;;;;;;20.77;7.38;;;;;;;7.37;100.00;100492.53;3592630;40;20544;-63
2021/04/05 04:53:00;;;;;;;15.88;4.70;;;;;;;7.08;100.00;100547.56;3590612;40;20591;-61
2021/04/05 04:55:27;;;;;;;7.93;2.70;;;;;;;6.28;100.00;100544.72;3591018;40;20379;-61
2021/04/05 04:57:57;;;;;;;7.20;2.60;;;;;;;5.80;100.00;100552.78;3591687;40;20039;-59
2021/04/05 05:00:25;;;;;;;8.40;2.53;;;;;;;5.56;100.00;100547.38;3591940;40;20048;-60
2021/04/05 05:02:51;;;;;;;9.57;2.25;;;;;;;5.50;100.00;100562.03;3590987;40;20059;-59
2021/04/05 05:05:20;;;;;;;9.70;1.95;;;;;;;5.36;100.00;100565.69;3590994;40;20391;-61
2021/04/05 05:07:47;;;;;;;10.05;1.92;;;;;;;5.25;100.00;100582.47;3591397;40;20056;-60
2021/04/05 05:10:13;;;;;;;10.88;1.80;;;;;;;5.08;100.00;100582.81;3592031;40;20096;-59
2021/04/05 05:12:41;;;;;;;5.90;1.35;;;;;;;5.06;100.00;100580.25;3590210;40;20048;-60
2021/04/05 05:15:10;;;;;;;4.93;1.52;;;;;;;4.89;100.00;100586.75;3590110;40;20067;-61
2021/04/05 05:17:39;;;;;;;6.38;1.30;;;;;;;4.69;100.00;100585.44;3591903;40;20037;-60
2021/04/05 05:20:07;;;;;;;3.03;1.30;;;;;;;4.47;100.00;100599.38;3586970;40;20066;-60
2021/04/05 05:22:37;;;;;;;2.65;1.02;;;;;;;4.46;100.00;100604.81;3590631;40;20059;-62
2021/04/05 05:25:04;;;;;;;3.03;1.00;;;;;;;4.52;100.00;100599.06;3592124;40;20432;-60
2021/04/05 05:27:32;;;;;;;5.15;0.90;;;;;;;4.46;100.00;100605.69;3591033;40;20056;-60
2021/04/05 05:29:59;;;;;;;4.22;1.02;;;;;;;4.38;100.00;100608.00;3592305;40;20037;-60
2021/04/05 05:32:25;;;;;;;18.77;1.83;;;;;;;4.26;100.00;100606.16;3589883;40;20044;-60
2021/04/05 05:34:52;;;;;;;4.25;0.98;;;;;;;4.26;100.00;100615.00;3590765;40;20421;-61
2021/04/05 05:37:21;;;;;;;3.25;1.00;;;;;;;4.24;100.00;100600.06;3591039;40;20062;-60
2021/04/05 05:39:48;;;;;;;3.03;0.90;;;;;;;4.20;100.00;100605.59;3592275;40;20044;-60
2021/04/05 05:42:24;;;;;;;3.70;0.90;;;;;;;4.28;100.00;100601.56;3590475;40;20075;-60
2021/04/05 05:44:56;;;;;;;4.68;1.42;;;;;;;4.22;100.00;100597.50;3591713;40;20369;-62
2021/04/05 05:47:26;;;;;;;2.25;1.02;;;;;;;4.25;100.00;100591.97;3591223;40;20068;-60
2021/04/05 05:50:05;;;;;;;4.43;1.10;;;;;;;4.17;100.00;100595.16;3591469;40;20029;-61
2021/04/05 05:52:45;;;;;;;3.08;0.98;;;;;;;4.19;100.00;100608.38;3590658;40;20059;-61
2021/04/05 05:55:56;;;;;;;4.40;1.45;;;;;;;4.08;100.00;100611.75;3591033;40;20056;-60
2021/04/05 05:58:40;;;;;;;5.18;1.42;;;;;;;4.14;100.00;100610.50;3536523;40;20085;-62
2021/04/05 06:01:14;;;;;;;8.23;1.92;;;;;;;4.13;100.00;100603.44;3582326;40;20041;-61
2021/04/05 06:03:55;;;;;;;11.02;2.10;;;;;;;4.17;100.00;100603.13;3591357;40;20105;-60
2021/04/05 06:06:27;;;;;;;4.95;1.60;;;;;;;4.18;100.00;100596.88;3589281;40;20064;-66
2021/04/05 06:09:18;;;;;;;8.15;1.75;;;;;;;4.18;100.00;100596.00;3589905;40;20101;-59
2021/04/05 06:11:55;;;;;;;10.60;1.60;;;;;;;4.22;100.00;100608.16;3587655;40;20137;-62
2021/04/05 06:14:32;;;;;;;5.57;1.50;;;;;;;4.27;100.00;100615.84;3590789;40;20059;-61
2021/04/05 06:17:05;;;;;;;13.07;1.85;;;;;;;4.29;100.00;100613.94;3589782;40;20041;-61
2021/04/05 06:19:45;;;;;;;6.18;1.60;;;;;;;4.24;100.00;100634.69;3591748;40;20043;-60
2021/04/05 06:22:26;;;;;;;;;;;;;;;4.06;100.00;100634.94;3590640;40;20040;-63
2021/04/05 06:25:02;;;;;;;4.82;1.35;;;;;;;3.81;100.00;100641.88;3590808;39;19948;-61
2021/04/05 06:27:39;;;;;;;4.18;1.10;;;;;;;3.83;100.00;100658.59;3587237;40;20483;-61
2021/04/05 06:30:10;;;;;;;8.20;1.60;;;;;;;3.82;100.00;100675.50;3591256;40;20032;-60
2021/04/05 06:38:35;;;;;;;6.97;0.95;;;;;;;3.39;100.00;100683.53;3603395;22;20044;-59
2021/04/05 06:41:10;;;;;;;3.30;0.73;;;;;;;3.46;100.00;100695.50;3579193;40;20057;-60
2021/04/05 06:43:45;;;;;;;2.55;0.80;;;;;;;3.45;100.00;100695.59;3580916;40;20051;-61
2021/04/05 06:46:22;;;;;;;8.25;2.05;;;;;;;3.11;100.00;100717.09;3579793;40;20381;-61
2021/04/05 06:49:13;;;;;;;9.35;1.90;;;;;;;3.06;100.00;100716.53;3581288;40;20056;-58
2021/04/05 06:51:53;;;;;;;11.85;2.33;;;;;;;2.98;100.00;100710.81;3579595;40;20045;-59
2021/04/05 06:54:36;;;;;;;12.95;2.20;;;;;;;3.10;100.00;100720.69;3580779;40;20453;-60
2021/04/05 06:57:08;;;;;;;18.60;2.88;;;;;;;3.12;100.00;100716.16;3579993;40;20182;-65
2021/04/05 06:59:44;;;;;;;14.38;2.05;;;;;;;3.14;100.00;100740.00;3580108;40;20044;-60
2021/04/05 07:02:37;;;;;;;22.25;2.70;;;;;;;3.04;100.00;100731.72;3578036;40;20051;-58
2021/04/05 07:05:16;;;;;;;11.57;2.42;;;;;;;3.01;100.00;100736.38;3579161;40;20089;-60
2021/04/05 07:07:45;;;;;;;22.58;3.50;;;;;;;3.00;100.00;100742.63;3580476;40;20053;-62
2021/04/05 07:10:20;;;;;;;18.02;3.28;;;;;;;3.02;100.00;100728.31;3578701;40;20060;-61
2021/04/05 07:12:55;;;;;;;19.65;2.88;;;;;;;2.97;100.00;100741.00;3578968;40;20118;-64
2021/04/05 07:15:31;;;;;;;13.60;2.80;;;;;;;2.96;100.00;100749.94;3579766;40;20056;-59
2021/04/05 07:18:06;;;;;;;14.80;2.35;;;;;;;3.03;100.00;100759.25;3579109;40;20075;-60
2021/04/05 07:20:37;;;;;;;15.30;2.95;;;;;;;3.14;100.00;100759.47;3578454;40;20045;-65
2021/04/05 07:23:12;;;;;;;16.77;3.33;;;;;;;3.14;100.00;100763.94;3579596;40;20063;-62
2021/04/05 07:25:49;;;;;;;15.10;2.97;;;;;;;3.11;100.00;100759.66;3580301;40;20375;-60
2021/04/05 07:28:20;;;;;;;16.70;2.78;;;;;;;3.33;100.00;100758.38;3578677;40;20432;-60
2021/04/05 07:30:51;;;;;;;17.48;2.45;;;;;;;3.36;100.00;100752.88;3580681;40;20057;-64
2021/04/05 07:33:26;;;;;;;20.27;2.35;;;;;;;3.43;100.00;100748.91;3581080;40;20057;-62
2021/04/05 07:36:00;;;;;;;11.50;2.72;;;;;;;3.46;100.00;100754.03;3581251;40;20061;-60
2021/04/05 07:38:38;;;;;;;13.23;3.28;;;;;;;3.53;100.00;100758.97;3580979;40;20053;-61
2021/04/05 07:41:10;;;;;;;14.65;2.35;;;;;;;3.65;100.00;100750.22;3581973;40;20122;-60
2021/04/05 07:43:46;;;;;;;10.50;2.35;;;;;;;3.66;100.00;100759.94;3580735;40;20149;-61
2021/04/05 07:46:32;;;;;;;12.43;2.22;;;;;;;3.79;100.00;100755.56;3581917;40;20055;-60
2021/04/05 07:49:10;;;;;;;16.80;2.65;;;;;;;3.89;100.00;100755.88;3581480;40;20055;-61
2021/04/05 07:51:46;;;;;;;12.15;2.38;;;;;;;3.88;100.00;100766.63;3580878;40;20048;-60
2021/04/05 07:54:17;;;;;;;8.75;2.20;;;;;;;4.04;100.00;100770.03;3578934;40;20044;-61
2021/04/05 07:56:54;;;;;;;15.35;3.05;;;;;;;4.09;100.00;100761.75;3582063;40;20414;-64
2021/04/05 07:59:33;;;;;;;11.75;2.47;;;;;;;3.93;100.00;100772.50;3580177;40;20049;-61
2021/04/05 08:02:03;;;;;;;12.30;2.63;;;;;;;3.85;100.00;100781.81;3580765;40;20041;-62
2021/04/05 08:04:40;;;;;;;14.55;2.53;;;;;;;3.63;100.00;100782.25;3580979;40;20056;-66
2021/04/05 08:07:11;;;;;;;15.88;2.65;;;;;;;3.79;100.00;100792.84;3581230;40;20094;-62
2021/04/05 08:09:43;;;;;;;13.93;2.40;;;;;;;3.84;100.00;100801.41;3581264;40;20044;-61
2021/04/05 08:12:21;;;;;;;8.80;2.30;;;;;;;4.13;100.00;100796.06;3579476;40;20067;-62
2021/04/05 08:14:58;;;;;;;7.32;2.17;;;;;;;4.08;100.00;100784.00;3580106;40;20376;-63
2021/04/05 08:17:35;;;;;;;9.20;2.03;;;;;;;3.91;100.00;100807.19;3580023;40;20064;-61
2021/04/05 08:20:05;;;;;;;8.68;1.90;;;;;;;3.95;100.00;100802.56;3580833;40;20049;-61
2021/04/05 08:22:42;;;;;;;6.82;1.80;;;;;;;3.98;100.00;100813.88;3579657;40;20048;-67
2021/04/05 08:25:23;;;;;;;7.15;1.90;;;;;;;3.99;100.00;100815.59;3580974;40;20059;-61
2021/04/05 08:27:57;;;;;;;7.53;1.85;;;;;;;3.99;100.00;100822.69;3580784;40;20053;-61
2021/04/05 08:30:29;;;;;;;10.05;1.48;;;;;;;3.85;100.00;100824.41;3580245;40;20127;-65
2021/04/05 08:33:04;;;;;;;4.63;1.48;;;;;;;3.47;100.00;100845.34;3581029;40;20044;-61
2021/04/05 08:35:41;;;;;;;6.18;1.15;;;;;;;2.91;100.00;100856.50;3580904;40;20036;-60
2021/04/05 08:38:16;;;;;;;4.07;1.33;;;;;;;2.61;100.00;100862.63;3580929;40;20065;-59
2021/04/05 08:40:48;;;;;;;4.07;0.90;;;;;;;2.65;100.00;100867.75;3580531;40;20365;-63
2021/04/05 08:43:23;;;;;;;5.13;0.93;;;;;;;2.82;100.00;100874.81;3580445;40;20044;-60
2021/04/05 08:45:53;;;;;;;5.28;1.00;;;;;;;3.05;100.00;100882.34;3581039;40;20401;-61
2021/04/05 08:48:21;;;;;;;5.53;1.30;;;;;;;3.03;100.00;100875.38;3579408;40;20318;-64
2021/04/05 08:50:51;;;;;;;4.05;1.20;;;;;;;2.93;100.00;100904.28;3578460;40;20432;-65
2021/04/05 08:53:19;;;;;;;2.72;0.80;;;;;;;2.44;100.00;100922.00;3580350;40;20414;-61
2021/04/05 08:55:46;;;;;;;4.85;1.20;;;;;;;1.93;100.00;100923.81;3579691;40;20063;-59
2021/04/05 08:58:23;;;;;;;4.40;0.80;;;;;;;1.82;100.00;100921.69;3578601;40;20061;-59
2021/04/05 09:00:51;;;;;;;6.50;1.00;;;;;;;1.63;100.00;100921.75;3580236;40;20048;-63
2021/04/05 09:03:22;;;;;;;3.35;1.00;;;;;;;1.79;100.00;100910.38;3580915;40;20041;-61
2021/04/05 09:05:51;;;;;;;4.35;1.20;;;;;;;2.19;100.00;100913.59;3578762;40;20059;-60
2021/04/05 09:08:21;;;;;;;6.85;1.55;;;;;;;2.28;100.00;100929.03;3577907;40;20037;-61
2021/04/05 09:10:50;;;;;;;7.82;1.38;;;;;;;2.53;100.00;100938.38;3577660;40;20056;-60
2021/04/05 09:13:22;;;;;;;4.90;1.30;;;;;;;2.65;100.00;100936.84;3581369;40;20052;-63
2021/04/05 09:16:15;;;;;;;5.90;1.17;;;;;;;2.74;100.00;100939.88;3579657;40;20406;-60
2021/04/05 09:21:25;;;;;;;7.80;1.40;;;;;;;2.80;100.00;100942.19;3609766;22;20406;-61
2021/04/05 09:24:19;;;;;;;5.85;1.95;;;;;;;2.78;100.00;100948.53;3573241;40;20150;-60
2021/04/05 09:27:00;;;;;;;5.25;1.60;;;;;;;2.82;100.00;100939.44;3572357;40;20056;-64
2021/04/05 09:29:39;;;;;;;8.85;1.83;;;;;;;2.88;100.00;100943.56;3572072;40;20044;-60
2021/04/05 09:32:28;;;;;;;11.40;1.88;;;;;;;2.88;100.00;100952.41;3570514;40;20112;-59
2021/04/05 09:35:34;;;;;;;7.80;2.20;;;;;;;3.04;100.00;100947.09;3572492;40;20695;-60
2021/04/05 09:38:11;;;;;;;10.00;1.95;;;;;;;3.11;100.00;100945.81;3572071;40;20395;-64
2021/04/05 09:40:58;;;;;;;9.73;2.00;;;;;;;3.17;100.00;100954.41;3573079;40;20053;-61
2021/04/05 09:44:07;;;;;;;10.90;2.28;;;;;;;2.55;100.00;100971.06;3572937;40;20310;-59
2021/04/05 09:46:55;;;;;;;11.15;2.30;;;;;;;1.85;100.00;100973.75;3567037;40;20141;-58
2021/04/05 09:49:29;;;;;;;9.00;1.75;;;;;;;1.93;100.00;100990.16;3573332;40;20097;-61
2021/04/05 09:52:15;;;;;;;9.98;1.80;;;;;;;1.95;100.00;100998.03;3573291;40;20049;-59
2021/04/05 09:54:48;;;;;;;6.13;1.73;;;;;;;2.20;100.00;100982.56;3572801;40;20053;-58
2021/04/05 09:57:19;;;;;;;7.05;1.15;;;;;;;2.54;100.00;100990.59;3572819;40;20084;-60
2021/04/05 09:59:49;;;;;;;10.80;2.08;;;;;;;2.55;100.00;100995.81;3572856;40;20336;-59
2021/04/05 10:02:30;;;;;;;8.30;1.38;;;;;;;2.86;100.00;100994.16;3568107;40;20041;-60
2021/04/05 10:05:00;;;;;;;6.63;1.67;;;;;;;3.17;100.00;100994.31;3569949;40;20057;-64
2021/04/05 10:07:27;;;;;;;11.60;2.70;;;;;;;3.28;100.00;100990.09;3572753;40;20064;-60
2021/04/05 10:09:55;;;;;;;11.85;1.73;;;;;;;3.17;100.00;100991.63;3572707;40;20112;-60
2021/04/05 10:12:23;;;;;;;8.02;1.77;;;;;;;3.47;100.00;100992.53;3572688;40;20036;-61
2021/04/05 10:14:51;;;;;;;9.25;2.10;;;;;;;3.66;100.00;100986.19;3573060;40;20115;-60
2021/04/05 10:17:24;;;;;;;18.92;2.15;;;;;;;3.57;100.00;100989.38;3572591;40;20139;-60
2021/04/05 10:19:54;;;;;;;11.40;1.88;;;;;;;3.83;100.00;100985.22;3572712;40;20034;-62
2021/04/05 10:22:20;;;;;;;;;;;;;;;4.06;100.00;100980.34;3573050;40;20054;-60
2021/04/05 10:24:49;;;;;;;11.63;2.45;;;;;;;4.06;100.00;101002.50;3572945;40;20294;-61
2021/04/05 10:27:18;;;;;;;12.68;2.10;;;;;;;4.11;100.00;100989.78;3572370;40;20050;-60
2021/04/05 10:29:47;;;;;;;7.83;1.63;;;;;;;4.55;100.00;100988.88;3572836;40;20057;-65
2021/04/05 10:32:18;;;;;;;10.57;1.98;;;;;;;4.40;100.00;101000.47;3571905;40;20395;-63
2021/04/05 10:34:49;;;;;;;5.63;1.40;;;;;;;1.78;100.00;101066.06;3572345;40;20310;-62
2021/04/05 10:37:18;;;;;;;8.52;2.05;;;;;;;1.25;100.00;101070.34;3572563;40;20129;-61
2021/04/05 10:39:54;;;;;;;9.02;1.40;;;;;;;1.26;100.00;101061.47;3571700;40;20057;-61
2021/04/05 10:42:25;;;;;;;7.13;1.70;;;;;;;1.11;100.00;101048.94;3571378;40;20053;-66
2021/04/05 10:44:56;;;;;;;4.43;1.15;;;;;;;1.46;100.00;101041.09;3572423;40;20052;-65
2021/04/05 10:47:26;;;;;;;9.75;1.30;;;;;;;1.61;100.00;101036.88;3570424;40;20043;-63
2021/04/05 10:49:56;;;;;;;5.00;1.08;;;;;;;1.85;100.00;101040.09;3571084;40;20033;-63
2021/04/05 10:52:26;;;;;;;;;;;;;;;2.70;100.00;101041.97;3570614;40;20073;-70
2021/04/05 10:54:54;;;;;;;6.18;1.20;;;;;;;3.04;100.00;101039.31;3570926;40;19948;-65
2021/04/05 10:57:27;;;;;;;6.68;1.27;;;;;;;3.26;100.00;101039.00;3570620;40;20056;-67
2021/04/05 10:59:55;;;;;;;8.63;1.40;;;;;;;3.55;100.00;101039.16;3570744;40;20419;-63
2021/04/05 11:02:28;;;;;;;6.88;2.00;;;;;;;3.90;100.00;101036.28;3569439;40;20164;-65
2021/04/05 11:04:56;;;;;;;9.80;1.92;;;;;;;3.74;100.00;101039.84;3565935;40;20050;-64
2021/04/05 11:07:24;;;;;;;16.42;2.30;;;;;;;3.87;100.00;101029.34;3570341;40;20064;-68
2021/04/05 11:09:55;;;;;;;8.05;1.63;;;;;;;4.05;100.00;101040.75;3569978;40;20322;-66
2021/04/05 11:12:23;;;;;;;6.35;1.52;;;;;;;4.31;100.00;101027.69;3569430;40;20071;-67
2021/04/05 11:14:51;;;;;;;11.57;2.63;;;;;;;4.57;100.00;101024.28;3569665;40;20038;-69
2021/04/05 11:17:19;;;;;;;5.43;1.70;;;;;;;4.39;100.00;101025.44;3570429;40;20057;-67
2021/04/05 11:19:51;;;;;;;8.07;1.50;;;;;;;4.73;100.00;101018.88;3570787;40;20404;-65
2021/04/05 11:22:24;;;;;;;8.55;1.50;;;;;;;4.84;96.44;101020.03;3565024;40;20501;-67
2021/04/05 11:25:00;;;;;;;9.43;2.10;;;;;;;4.76;92.24;101023.19;3561246;40;20033;-66
2021/04/05 11:27:28;;;;;;;6.30;1.73;;;;;;;4.32;97.20;101046.25;3562182;40;20076;-67
2021/04/05 11:29:57;;;;;;;4.03;1.40;;;;;;;4.62;94.86;101039.16;3562460;40;20403;-68
2021/04/05 11:32:27;;;;;;;8.50;1.48;;;;;;;5.04;95.88;101032.97;3561769;40;20050;-65
2021/04/05 11:34:56;;;;;;;6.93;1.48;;;;;;;5.43;92.75;101033.22;3562102;40;20061;-66
2021/04/05 11:37:28;;;;;;;8.55;1.65;;;;;;;5.43;85.81;101023.41;3561686;40;20064;-72
2021/04/05 11:40:00;;;;;;;9.77;1.95;;;;;;;4.33;85.29;101037.31;3562427;40;20042;-67
2021/04/05 11:42:34;;;;;;;9.02;1.50;;;;;;;3.96;92.54;101057.25;3561650;40;20083;-65
2021/04/05 11:45:02;;;;;;;7.00;1.20;;;;;;;3.86;88.80;101046.28;3561636;40;20372;-65
2021/04/05 11:47:34;;;;;;;11.13;1.63;;;;;;;4.69;92.18;101027.16;3561908;40;20075;-71